Skip Navigation Links
NOAA logo - Click to go to the NOAA homepage
NOAA's National Weather Service
Alaska Aviation Weather Unit
  NWS logo - Click to go to the NWS homepage
Left Navbar Graphic     03 AKDT = 11 GMT

   
NOAA is celebrating 200 years of science, service, and stewardship. Visit the NOAA 200th celebration Web site to learn more.
USA.gov is the U.S. Government's official Web portal to all Federal, state and local government Web resources and services.
Facebook
NWS on Facebook

AAWU Home :: Display TAF Add Bookmark
TAF PASD 290532Z 2906/3006 33010G16KT P6SM FEW030
     FM290700 33006KT P6SM SKC
     FM292000 09005KT P6SM SCT250
     FM300500 06015KT P6SM SCT025 BKN060
      AMD LTD TO CLD VIS AND WIND=

METAR PASD 290516Z AUTO 35015KT 10SM CLR M01/M06 A2972 RMK AO1 TSNO= METAR PASD 290536Z AUTO 33017KT 10SM CLR M01/M06 A2973 RMK AO1 TSNO= METAR PASD 290616Z AUTO 33016KT 10SM CLR M02/M07 A2974 RMK AO1= METAR PASD 290636Z AUTO 33015KT 10SM CLR M02/M07 A2974 RMK AO1= METAR PASD 290656Z AUTO 35012KT 10SM CLR M02/M06 A2975 RMK AO1= METAR PASD 290716Z AUTO 34006KT 10SM CLR M02/M06 A2976 RMK AO1= METAR PASD 290736Z AUTO 33009KT 10SM CLR M02/M07 A2977 RMK AO1= METAR PASD 290756Z AUTO 34010KT 10SM CLR M02/M07 A2977 RMK AO1= METAR PASD 290816Z AUTO 33012KT 10SM CLR M02/M07 A2977 RMK AO1= METAR PASD 290836Z AUTO 33008KT 10SM CLR M02/M07 A2978 RMK AO1= METAR PASD 290856Z AUTO 33007KT 10SM CLR M02/M07 A2978 RMK AO1 52017= METAR PASD 290916Z AUTO 33008KT 10SM CLR M03/M07 A2978 RMK AO1= METAR PASD 290936Z AUTO 33006KT 10SM CLR M03/M07 A2979 RMK AO1= METAR PASD 290956Z AUTO 33010KT 10SM CLR M03/M07 A2978 RMK AO1= METAR PASD 291016Z AUTO 34012KT 10SM CLR M03/M07 A2978 RMK AO1= METAR PASD 291036Z AUTO 33012KT 10SM CLR M02/M07 A2978 RMK AO1=
 Alaska TAF Map

NOAA's National Weather Service
Alaska Aviation Weather Unit
6930 Sand Lake Road
Anchorage, AK 99502-1845
Disclaimer
Credits
Glossary
Privacy Policy
About Us
Career Opportunities
Contact AAWU Internet Services Site last modified: April, 17th 2012